sensor_id;sensor_type;location;lat;lon;timestamp;pressure;altitude;pressure_sealevel;temperature;humidity
70046;BME280;57385;41.832;23.494;2022-12-07T00:00:20;90955.97;;;2.80;83.11
70046;BME280;57385;41.832;23.494;2022-12-07T00:01:42;90967.50;;;2.83;83.34
70046;BME280;57385;41.832;23.494;2022-12-07T00:03:04;90971.16;;;2.80;83.01
70046;BME280;57385;41.832;23.494;2022-12-07T00:04:25;90963.75;;;2.79;82.57
70046;BME280;57385;41.832;23.494;2022-12-07T00:05:46;90966.47;;;2.77;82.71
70046;BME280;57385;41.832;23.494;2022-12-07T00:07:07;90964.03;;;2.69;83.01
70046;BME280;57385;41.832;23.494;2022-12-07T00:08:29;90967.16;;;2.71;83.68
70046;BME280;57385;41.832;23.494;2022-12-07T00:09:50;90968.13;;;2.70;83.00
70046;BME280;57385;41.832;23.494;2022-12-07T00:11:17;90964.81;;;2.70;82.90
70046;BME280;57385;41.832;23.494;2022-12-07T00:12:38;90961.69;;;2.67;83.15
70046;BME280;57385;41.832;23.494;2022-12-07T00:14:02;90965.97;;;2.67;83.50
70046;BME280;57385;41.832;23.494;2022-12-07T00:15:23;90964.94;;;2.61;83.54
70046;BME280;57385;41.832;23.494;2022-12-07T00:16:45;90962.13;;;2.56;84.25
70046;BME280;57385;41.832;23.494;2022-12-07T00:18:06;90964.47;;;2.58;84.10
70046;BME280;57385;41.832;23.494;2022-12-07T00:19:27;90964.16;;;2.61;83.81
70046;BME280;57385;41.832;23.494;2022-12-07T00:20:48;90964.47;;;2.58;84.04
70046;BME280;57385;41.832;23.494;2022-12-07T00:22:10;90965.25;;;2.58;84.11
70046;BME280;57385;41.832;23.494;2022-12-07T00:23:32;90958.81;;;2.56;84.14
70046;BME280;57385;41.832;23.494;2022-12-07T00:24:53;90959.97;;;2.53;84.30
70046;BME280;57385;41.832;23.494;2022-12-07T00:26:38;90957.78;;;2.50;84.12
70046;BME280;57385;41.832;23.494;2022-12-07T00:27:59;90958.94;;;2.48;84.53
70046;BME280;57385;41.832;23.494;2022-12-07T00:29:21;90961.28;;;2.49;84.50
70046;BME280;57385;41.832;23.494;2022-12-07T00:30:45;90970.44;;;2.50;84.07
70046;BME280;57385;41.832;23.494;2022-12-07T00:32:06;90965.75;;;2.47;83.98
70046;BME280;57385;41.832;23.494;2022-12-07T00:33:27;90966.53;;;2.48;84.16
70046;BME280;57385;41.832;23.494;2022-12-07T00:34:49;90966.53;;;2.48;84.87
70046;BME280;57385;41.832;23.494;2022-12-07T00:36:13;90961.19;;;2.43;84.08
70046;BME280;57385;41.832;23.494;2022-12-07T00:37:34;90955.53;;;2.41;84.19
70046;BME280;57385;41.832;23.494;2022-12-07T00:38:58;90959.63;;;2.42;84.56
70046;BME280;57385;41.832;23.494;2022-12-07T00:40:19;90960.59;;;2.41;84.54
70046;BME280;57385;41.832;23.494;2022-12-07T00:41:40;90947.16;;;2.40;83.79
70046;BME280;57385;41.832;23.494;2022-12-07T00:43:01;90956.31;;;2.41;84.54
70046;BME280;57385;41.832;23.494;2022-12-07T00:44:22;90958.84;;;2.41;84.69
70046;BME280;57385;41.832;23.494;2022-12-07T00:45:44;90960.59;;;2.41;83.87
70046;BME280;57385;41.832;23.494;2022-12-07T00:47:05;90963.09;;;2.41;84.24
70046;BME280;57385;41.832;23.494;2022-12-07T00:48:26;90958.22;;;2.39;84.51
70046;BME280;57385;41.832;23.494;2022-12-07T00:49:47;90962.50;;;2.38;84.31
70046;BME280;57385;41.832;23.494;2022-12-07T00:51:11;90955.59;;;2.32;84.67
70046;BME280;57385;41.832;23.494;2022-12-07T00:52:32;90954.31;;;2.36;84.91
70046;BME280;57385;41.832;23.494;2022-12-07T00:53:53;90953.53;;;2.36;85.00
70046;BME280;57385;41.832;23.494;2022-12-07T00:55:15;90948.72;;;2.26;85.53
70046;BME280;57385;41.832;23.494;2022-12-07T00:56:36;90941.75;;;2.28;85.35
70046;BME280;57385;41.832;23.494;2022-12-07T00:57:57;90943.91;;;2.31;85.13
70046;BME280;57385;41.832;23.494;2022-12-07T00:59:18;90934.50;;;2.25;85.70
70046;BME280;57385;41.832;23.494;2022-12-07T01:00:41;90939.03;;;2.30;86.18
70046;BME280;57385;41.832;23.494;2022-12-07T01:02:03;90937.88;;;2.32;85.52
70046;BME280;57385;41.832;23.494;2022-12-07T01:03:24;90936.00;;;2.34;85.23
70046;BME280;57385;41.832;23.494;2022-12-07T01:04:45;90939.13;;;2.36;85.26
70046;BME280;57385;41.832;23.494;2022-12-07T01:06:06;90929.00;;;2.36;84.60
70046;BME280;57385;41.832;23.494;2022-12-07T01:07:27;90937.19;;;2.38;84.55
70046;BME280;57385;41.832;23.494;2022-12-07T01:08:49;90934.69;;;2.38;84.94
70046;BME280;57385;41.832;23.494;2022-12-07T01:10:10;90931.34;;;2.38;84.17
70046;BME280;57385;41.832;23.494;2022-12-07T01:11:32;90942.63;;;2.35;84.32
70046;BME280;57385;41.832;23.494;2022-12-07T01:12:53;90941.22;;;2.33;83.97
70046;BME280;57385;41.832;23.494;2022-12-07T01:14:14;90939.13;;;2.36;84.60
70046;BME280;57385;41.832;23.494;2022-12-07T01:15:40;90929.97;;;2.35;84.07
70046;BME280;57385;41.832;23.494;2022-12-07T01:17:01;90935.63;;;2.37;83.66
70046;BME280;57385;41.832;23.494;2022-12-07T01:18:22;90936.16;;;2.33;83.75
70046;BME280;57385;41.832;23.494;2022-12-07T01:19:46;90937.47;;;2.29;84.69
70046;BME280;57385;41.832;23.494;2022-12-07T01:21:13;90930.41;;;2.24;84.69
70046;BME280;57385;41.832;23.494;2022-12-07T01:22:39;90930.00;;;2.21;85.04
70046;BME280;57385;41.832;23.494;2022-12-07T01:24:08;90929.81;;;2.22;85.05
70046;BME280;57385;41.832;23.494;2022-12-07T01:25:30;90929.34;;;2.19;86.12
70046;BME280;57385;41.832;23.494;2022-12-07T01:26:51;90924.16;;;2.20;85.11
70046;BME280;57385;41.832;23.494;2022-12-07T01:28:12;90917.34;;;2.21;85.86
70046;BME280;57385;41.832;23.494;2022-12-07T01:29:34;90920.13;;;2.26;84.85
70046;BME280;57385;41.832;23.494;2022-12-07T01:30:59;90918.72;;;2.23;85.17
70046;BME280;57385;41.832;23.494;2022-12-07T01:32:21;90919.34;;;2.25;85.54
70046;BME280;57385;41.832;23.494;2022-12-07T01:33:45;90927.69;;;2.26;84.91
70046;BME280;57385;41.832;23.494;2022-12-07T01:35:06;90913.66;;;2.23;84.29
70046;BME280;57385;41.832;23.494;2022-12-07T01:36:30;90923.44;;;2.26;85.01
70046;BME280;57385;41.832;23.494;2022-12-07T01:37:52;90922.81;;;2.24;85.42
70046;BME280;57385;41.832;23.494;2022-12-07T01:39:13;90911.75;;;2.25;84.24
70046;BME280;57385;41.832;23.494;2022-12-07T01:40:34;90912.53;;;2.26;84.69
70046;BME280;57385;41.832;23.494;2022-12-07T01:41:56;90911.38;;;2.28;84.70
70046;BME280;57385;41.832;23.494;2022-12-07T01:43:18;90912.94;;;2.29;84.64
70046;BME280;57385;41.832;23.494;2022-12-07T01:46:38;90904.41;;;2.30;84.96
70046;BME280;57385;41.832;23.494;2022-12-07T01:48:00;90909.47;;;2.30;84.60
70046;BME280;57385;41.832;23.494;2022-12-07T01:49:22;90907.88;;;2.29;84.55
70046;BME280;57385;41.832;23.494;2022-12-07T01:50:48;90910.41;;;2.29;84.02
70046;BME280;57385;41.832;23.494;2022-12-07T01:52:17;90903.63;;;2.30;84.27
70046;BME280;57385;41.832;23.494;2022-12-07T01:53:42;90906.50;;;2.27;84.09
70046;BME280;57385;41.832;23.494;2022-12-07T01:55:08;90909.03;;;2.27;84.12
70046;BME280;57385;41.832;23.494;2022-12-07T01:56:31;90910.78;;;2.26;84.24
70046;BME280;57385;41.832;23.494;2022-12-07T01:57:53;90908.59;;;2.23;83.75
70046;BME280;57385;41.832;23.494;2022-12-07T01:59:16;90910.72;;;2.20;84.21
70046;BME280;57385;41.832;23.494;2022-12-07T02:00:39;90912.28;;;2.21;83.89
70046;BME280;57385;41.832;23.494;2022-12-07T02:02:02;90913.06;;;2.21;84.54
70046;BME280;57385;41.832;23.494;2022-12-07T02:03:34;90913.41;;;2.18;85.06
70046;BME280;57385;41.832;23.494;2022-12-07T02:04:57;90918.63;;;2.17;84.65
70046;BME280;57385;41.832;23.494;2022-12-07T02:06:22;90918.19;;;2.13;84.42
70046;BME280;57385;41.832;23.494;2022-12-07T02:07:45;90913.75;;;2.15;84.37
70046;BME280;57385;41.832;23.494;2022-12-07T02:09:07;90922.91;;;2.16;84.26
70046;BME280;57385;41.832;23.494;2022-12-07T02:10:30;90917.84;;;2.16;84.03
70046;BME280;57385;41.832;23.494;2022-12-07T02:11:52;90914.53;;;2.16;84.71
70046;BME280;57385;41.832;23.494;2022-12-07T02:13:21;90920.91;;;2.12;84.35
70046;BME280;57385;41.832;23.494;2022-12-07T02:14:44;90916.63;;;2.12;83.98
70046;BME280;57385;41.832;23.494;2022-12-07T02:19:25;90917.25;;;2.14;85.42
70046;BME280;57385;41.832;23.494;2022-12-07T02:21:14;90912.78;;;2.16;86.38
70046;BME280;57385;41.832;23.494;2022-12-07T02:28:12;90904.25;;;2.17;86.44
70046;BME280;57385;41.832;23.494;2022-12-07T02:30:00;90899.63;;;2.21;86.38
70046;BME280;57385;41.832;23.494;2022-12-07T02:31:23;90898.66;;;2.22;86.85
70046;BME280;57385;41.832;23.494;2022-12-07T02:33:06;90895.97;;;2.23;86.13
70046;BME280;57385;41.832;23.494;2022-12-07T02:34:44;90897.72;;;2.23;86.69
70046;BME280;57385;41.832;23.494;2022-12-07T02:36:21;90898.50;;;2.23;86.30
70046;BME280;57385;41.832;23.494;2022-12-07T02:38:03;90892.66;;;2.23;85.70
70046;BME280;57385;41.832;23.494;2022-12-07T02:39:52;90897.53;;;2.24;86.01
70046;BME280;57385;41.832;23.494;2022-12-07T02:41:33;90894.22;;;2.24;86.25
70046;BME280;57385;41.832;23.494;2022-12-07T02:43:12;90891.69;;;2.24;85.75
70046;BME280;57385;41.832;23.494;2022-12-07T02:44:35;90892.47;;;2.24;85.93
70046;BME280;57385;41.832;23.494;2022-12-07T02:46:08;90900.91;;;2.31;85.81
70046;BME280;57385;41.832;23.494;2022-12-07T02:47:31;90894.88;;;2.32;85.21
70046;BME280;57385;41.832;23.494;2022-12-07T02:48:54;90890.78;;;2.31;85.63
70046;BME280;57385;41.832;23.494;2022-12-07T02:50:19;90892.19;;;2.34;84.99
70046;BME280;57385;41.832;23.494;2022-12-07T02:51:43;90895.50;;;2.34;85.17
70046;BME280;57385;41.832;23.494;2022-12-07T02:53:05;90902.13;;;2.35;84.60
70046;BME280;57385;41.832;23.494;2022-12-07T02:54:26;90897.31;;;2.41;85.09
70046;BME280;57385;41.832;23.494;2022-12-07T02:55:47;90901.59;;;2.40;85.29
70046;BME280;57385;41.832;23.494;2022-12-07T02:57:36;90897.91;;;2.43;85.45
70046;BME280;57385;41.832;23.494;2022-12-07T03:00:44;90892.06;;;2.42;85.46
70046;BME280;57385;41.832;23.494;2022-12-07T03:05:59;90891.28;;;2.42;85.03
70046;BME280;57385;41.832;23.494;2022-12-07T03:12:20;90899.25;;;2.38;85.03
70046;BME280;57385;41.832;23.494;2022-12-07T03:14:25;90893.94;;;2.33;84.73
70046;BME280;57385;41.832;23.494;2022-12-07T03:17:29;90887.75;;;2.36;85.12
70046;BME280;57385;41.832;23.494;2022-12-07T03:19:03;90887.13;;;2.34;84.06
70046;BME280;57385;41.832;23.494;2022-12-07T03:20:29;90890.09;;;2.37;84.38
70046;BME280;57385;41.832;23.494;2022-12-07T03:21:57;90885.03;;;2.37;85.17
70046;BME280;57385;41.832;23.494;2022-12-07T03:23:19;90880.75;;;2.38;83.72
70046;BME280;57385;41.832;23.494;2022-12-07T03:24:49;90882.13;;;2.41;84.52
70046;BME280;57385;41.832;23.494;2022-12-07T03:26:14;90883.28;;;2.38;83.92
70046;BME280;57385;41.832;23.494;2022-12-07T03:27:54;90883.47;;;2.36;84.29
70046;BME280;57385;41.832;23.494;2022-12-07T03:29:29;90886.59;;;2.38;84.27
70046;BME280;57385;41.832;23.494;2022-12-07T03:32:45;90888.25;;;2.31;84.33
70046;BME280;57385;41.832;23.494;2022-12-07T03:34:24;90890.59;;;2.33;84.70
70046;BME280;57385;41.832;23.494;2022-12-07T03:35:52;90890.09;;;2.37;84.79
70046;BME280;57385;41.832;23.494;2022-12-07T03:37:26;90885.81;;;2.38;83.92
70046;BME280;57385;41.832;23.494;2022-12-07T03:39:11;90887.63;;;2.44;84.72
70046;BME280;57385;41.832;23.494;2022-12-07T03:42:14;90892.94;;;2.49;84.20
70046;BME280;57385;41.832;23.494;2022-12-07T03:43:36;90890.22;;;2.51;84.58
70046;BME280;57385;41.832;23.494;2022-12-07T03:44:57;90888.13;;;2.54;84.31
70046;BME280;57385;41.832;23.494;2022-12-07T03:48:00;90885.50;;;2.62;83.56
70046;BME280;57385;41.832;23.494;2022-12-07T03:49:54;90884.53;;;2.63;84.30
70046;BME280;57385;41.832;23.494;2022-12-07T03:51:46;90885.50;;;2.62;84.28
70046;BME280;57385;41.832;23.494;2022-12-07T03:56:44;90887.84;;;2.64;84.87
70046;BME280;57385;41.832;23.494;2022-12-07T03:58:10;90884.34;;;2.65;84.49
70046;BME280;57385;41.832;23.494;2022-12-07T03:59:33;90880.06;;;2.65;84.81
70046;BME280;57385;41.832;23.494;2022-12-07T04:00:54;90880.66;;;2.67;84.51
70046;BME280;57385;41.832;23.494;2022-12-07T04:02:15;90887.72;;;2.72;84.20
70046;BME280;57385;41.832;23.494;2022-12-07T04:03:37;90879.94;;;2.74;84.25
70046;BME280;57385;41.832;23.494;2022-12-07T04:04:58;90880.13;;;2.72;84.02
70046;BME280;57385;41.832;23.494;2022-12-07T04:06:19;90878.03;;;2.76;83.68
70046;BME280;57385;41.832;23.494;2022-12-07T04:07:41;90880.38;;;2.77;83.68
70046;BME280;57385;41.832;23.494;2022-12-07T04:09:02;90883.50;;;2.79;84.00
70046;BME280;57385;41.832;23.494;2022-12-07T04:10:23;90877.31;;;2.82;83.85
70046;BME280;57385;41.832;23.494;2022-12-07T04:11:44;90876.94;;;2.85;83.34
70046;BME280;57385;41.832;23.494;2022-12-07T04:13:06;90871.09;;;2.84;83.29
70046;BME280;57385;41.832;23.494;2022-12-07T04:14:27;90869.00;;;2.88;84.00
70046;BME280;57385;41.832;23.494;2022-12-07T04:15:48;90875.44;;;2.90;83.47
70046;BME280;57385;41.832;23.494;2022-12-07T04:17:10;90877.97;;;2.90;83.63
70046;BME280;57385;41.832;23.494;2022-12-07T04:18:31;90881.09;;;2.92;84.39
70046;BME280;57385;41.832;23.494;2022-12-07T04:19:52;90874.09;;;2.94;84.14
70046;BME280;57385;41.832;23.494;2022-12-07T04:21:13;90872.00;;;2.98;84.51
70046;BME280;57385;41.832;23.494;2022-12-07T04:22:34;90865.97;;;2.99;84.14
70046;BME280;57385;41.832;23.494;2022-12-07T04:23:55;90865.53;;;2.95;84.17
70046;BME280;57385;41.832;23.494;2022-12-07T04:25:16;90872.78;;;2.98;84.10
70046;BME280;57385;41.832;23.494;2022-12-07T04:26:38;90870.84;;;3.01;84.14
70046;BME280;57385;41.832;23.494;2022-12-07T04:27:59;90869.91;;;3.02;84.77
70046;BME280;57385;41.832;23.494;2022-12-07T04:29:20;90865.25;;;3.05;84.77
70046;BME280;57385;41.832;23.494;2022-12-07T04:30:41;90864.28;;;3.06;84.28
70046;BME280;57385;41.832;23.494;2022-12-07T04:32:02;90861.56;;;3.08;84.22
70046;BME280;57385;41.832;23.494;2022-12-07T04:33:24;90871.31;;;3.11;84.48
70046;BME280;57385;41.832;23.494;2022-12-07T04:34:45;90869.75;;;3.10;83.94
70046;BME280;57385;41.832;23.494;2022-12-07T04:36:08;90869.38;;;3.13;84.48
70046;BME280;57385;41.832;23.494;2022-12-07T04:37:30;90870.78;;;3.15;84.63
70046;BME280;57385;41.832;23.494;2022-12-07T04:38:53;90867.28;;;3.16;84.21
70046;BME280;57385;41.832;23.494;2022-12-07T04:40:15;90861.66;;;3.21;84.54
70046;BME280;57385;41.832;23.494;2022-12-07T04:41:36;90870.84;;;3.22;83.79
70046;BME280;57385;41.832;23.494;2022-12-07T04:42:57;90860.09;;;3.20;84.18
70046;BME280;57385;41.832;23.494;2022-12-07T04:44:19;90864.78;;;3.23;84.14
70046;BME280;57385;41.832;23.494;2022-12-07T04:45:46;90863.81;;;3.24;83.69
70046;BME280;57385;41.832;23.494;2022-12-07T04:47:07;90862.44;;;3.21;83.85
70046;BME280;57385;41.832;23.494;2022-12-07T04:48:28;90861.66;;;3.21;84.02
70046;BME280;57385;41.832;23.494;2022-12-07T04:49:49;90864.97;;;3.21;84.37
70046;BME280;57385;41.832;23.494;2022-12-07T04:51:10;90861.66;;;3.21;84.29
70046;BME280;57385;41.832;23.494;2022-12-07T04:52:32;90863.22;;;3.22;84.00
70046;BME280;57385;41.832;23.494;2022-12-07T04:53:53;90866.72;;;3.21;83.49
70046;BME280;57385;41.832;23.494;2022-12-07T04:55:14;90863.81;;;3.24;84.13
70046;BME280;57385;41.832;23.494;2022-12-07T04:56:36;90865.38;;;3.25;83.94
70046;BME280;57385;41.832;23.494;2022-12-07T04:57:57;90866.34;;;3.24;83.47
70046;BME280;57385;41.832;23.494;2022-12-07T04:59:18;90867.88;;;3.18;83.93
70046;BME280;57385;41.832;23.494;2022-12-07T05:00:39;90868.28;;;3.22;83.76
70046;BME280;57385;41.832;23.494;2022-12-07T05:02:00;90865.81;;;3.28;83.81
70046;BME280;57385;41.832;23.494;2022-12-07T05:03:22;90866.00;;;3.27;83.77
70046;BME280;57385;41.832;23.494;2022-12-07T05:04:43;90867.56;;;3.28;83.91
70046;BME280;57385;41.832;23.494;2022-12-07T05:06:05;90866.84;;;3.34;83.90
70046;BME280;57385;41.832;23.494;2022-12-07T05:07:33;90872.50;;;3.36;84.14
70046;BME280;57385;41.832;23.494;2022-12-07T05:08:54;90872.31;;;3.38;83.88
70046;BME280;57385;41.832;23.494;2022-12-07T05:10:15;90877.19;;;3.39;83.62
70046;BME280;57385;41.832;23.494;2022-12-07T05:11:37;90877.00;;;3.41;84.08
70046;BME280;57385;41.832;23.494;2022-12-07T05:13:01;90876.59;;;3.37;84.23
70046;BME280;57385;41.832;23.494;2022-12-07T05:14:22;90880.09;;;3.36;83.46
70046;BME280;57385;41.832;23.494;2022-12-07T05:15:43;90877.38;;;3.38;84.09
70046;BME280;57385;41.832;23.494;2022-12-07T05:17:04;90878.47;;;3.28;84.30
70046;BME280;57385;41.832;23.494;2022-12-07T05:18:26;90873.66;;;3.12;83.62
70046;BME280;57385;41.832;23.494;2022-12-07T05:19:47;90872.91;;;2.90;84.20
70046;BME280;57385;41.832;23.494;2022-12-07T05:21:08;90876.28;;;2.76;85.04
70046;BME280;57385;41.832;23.494;2022-12-07T05:22:29;90871.75;;;2.72;85.23
70046;BME280;57385;41.832;23.494;2022-12-07T05:23:51;90870.31;;;2.62;85.64
70046;BME280;57385;41.832;23.494;2022-12-07T05:25:12;90883.25;;;2.53;86.56
70046;BME280;57385;41.832;23.494;2022-12-07T05:26:33;90878.19;;;2.53;86.37
70046;BME280;57385;41.832;23.494;2022-12-07T05:27:56;90880.16;;;2.57;86.11
70046;BME280;57385;41.832;23.494;2022-12-07T05:29:17;90885.19;;;2.51;86.25
70046;BME280;57385;41.832;23.494;2022-12-07T05:30:38;90882.22;;;2.47;87.04
70046;BME280;57385;41.832;23.494;2022-12-07T05:31:59;90877.59;;;2.51;86.50
70046;BME280;57385;41.832;23.494;2022-12-07T05:33:20;90876.44;;;2.53;86.20
70046;BME280;57385;41.832;23.494;2022-12-07T05:34:41;90874.31;;;2.57;86.36
70046;BME280;57385;41.832;23.494;2022-12-07T05:36:03;90880.34;;;2.56;86.50
70046;BME280;57385;41.832;23.494;2022-12-07T05:37:26;90888.31;;;2.53;86.58
70046;BME280;57385;41.832;23.494;2022-12-07T05:38:47;90887.72;;;2.51;87.07
70046;BME280;57385;41.832;23.494;2022-12-07T05:40:09;90885.78;;;2.53;86.15
70046;BME280;57385;41.832;23.494;2022-12-07T05:41:31;90886.56;;;2.53;86.66
70046;BME280;57385;41.832;23.494;2022-12-07T05:43:10;90885.22;;;2.57;86.36
70046;BME280;57385;41.832;23.494;2022-12-07T05:44:31;90890.56;;;2.62;86.45
70046;BME280;57385;41.832;23.494;2022-12-07T05:45:52;90889.22;;;2.66;86.50
70046;BME280;57385;41.832;23.494;2022-12-07T05:47:14;90895.50;;;2.71;86.45
70046;BME280;57385;41.832;23.494;2022-12-07T05:48:35;90893.56;;;2.73;86.68
70046;BME280;57385;41.832;23.494;2022-12-07T05:49:57;90892.84;;;2.79;85.78
70046;BME280;57385;41.832;23.494;2022-12-07T05:51:19;90891.34;;;2.84;86.41
70046;BME280;57385;41.832;23.494;2022-12-07T05:52:40;90896.50;;;2.91;86.21
70046;BME280;57385;41.832;23.494;2022-12-07T05:54:01;90897.69;;;2.95;85.74
70046;BME280;57385;41.832;23.494;2022-12-07T05:55:22;90889.78;;;3.05;84.98
70046;BME280;57385;41.832;23.494;2022-12-07T05:56:43;90890.63;;;3.12;85.44
70046;BME280;57385;41.832;23.494;2022-12-07T05:58:05;90887.19;;;3.19;84.46
70046;BME280;57385;41.832;23.494;2022-12-07T05:59:44;90892.28;;;3.26;83.97
70046;BME280;57385;41.832;23.494;2022-12-07T06:01:05;90889.84;;;3.33;84.03
70046;BME280;57385;41.832;23.494;2022-12-07T06:02:26;90897.47;;;3.39;84.34
70046;BME280;57385;41.832;23.494;2022-12-07T06:03:48;90888.38;;;3.45;83.71
70046;BME280;57385;41.832;23.494;2022-12-07T06:05:09;90898.50;;;3.45;84.45
70046;BME280;57385;41.832;23.494;2022-12-07T06:06:30;90896.19;;;3.50;83.79
70046;BME280;57385;41.832;23.494;2022-12-07T06:07:51;90896.59;;;3.53;83.21
70046;BME280;57385;41.832;23.494;2022-12-07T06:09:13;90896.84;;;3.59;83.03
70046;BME280;57385;41.832;23.494;2022-12-07T06:10:35;90896.28;;;3.63;83.25
70046;BME280;57385;41.832;23.494;2022-12-07T06:11:57;90899.22;;;3.67;83.21
70046;BME280;57385;41.832;23.494;2022-12-07T06:13:36;90895.13;;;3.66;83.03
70046;BME280;57385;41.832;23.494;2022-12-07T06:15:05;90886.75;;;3.65;82.96
70046;BME280;57385;41.832;23.494;2022-12-07T06:16:27;90900.78;;;3.68;83.67
70046;BME280;57385;41.832;23.494;2022-12-07T06:17:49;90898.13;;;3.76;83.14
70046;BME280;57385;41.832;23.494;2022-12-07T06:19:10;90890.13;;;3.79;82.80
70046;BME280;57385;41.832;23.494;2022-12-07T06:20:31;90896.00;;;3.79;82.84
70046;BME280;57385;41.832;23.494;2022-12-07T06:21:53;90897.94;;;3.77;83.31
70046;BME280;57385;41.832;23.494;2022-12-07T06:23:14;90900.28;;;3.79;83.46
70046;BME280;57385;41.832;23.494;2022-12-07T06:24:35;90902.81;;;3.79;83.32
70046;BME280;57385;41.832;23.494;2022-12-07T06:25:56;90899.50;;;3.78;82.90
70046;BME280;57385;41.832;23.494;2022-12-07T06:27:18;90901.72;;;3.88;83.13
70046;BME280;57385;41.832;23.494;2022-12-07T06:28:39;90899.25;;;4.01;82.70
70046;BME280;57385;41.832;23.494;2022-12-07T06:30:01;90897.78;;;4.20;82.22
70046;BME280;57385;41.832;23.494;2022-12-07T06:31:27;90901.00;;;4.42;81.11
70046;BME280;57385;41.832;23.494;2022-12-07T06:32:48;90896.38;;;4.59;80.35
70046;BME280;57385;41.832;23.494;2022-12-07T06:34:12;90902.44;;;4.64;80.09
70046;BME280;57385;41.832;23.494;2022-12-07T06:35:34;90899.91;;;4.58;80.05
70046;BME280;57385;41.832;23.494;2022-12-07T06:36:55;90898.38;;;4.70;79.39
70046;BME280;57385;41.832;23.494;2022-12-07T06:38:16;90894.88;;;4.78;79.35
70046;BME280;57385;41.832;23.494;2022-12-07T06:39:38;90899.78;;;4.86;78.89
70046;BME280;57385;41.832;23.494;2022-12-07T06:40:59;90897.44;;;4.91;78.53
70046;BME280;57385;41.832;23.494;2022-12-07T06:42:20;90905.69;;;4.99;78.42
70046;BME280;57385;41.832;23.494;2022-12-07T06:43:41;90902.94;;;5.01;78.33
70046;BME280;57385;41.832;23.494;2022-12-07T06:45:03;90897.09;;;5.00;78.48
70046;BME280;57385;41.832;23.494;2022-12-07T06:46:24;90900.03;;;5.11;78.35
70046;BME280;57385;41.832;23.494;2022-12-07T06:47:45;90902.56;;;5.17;78.21
70046;BME280;57385;41.832;23.494;2022-12-07T06:49:07;90895.94;;;5.16;78.19
70046;BME280;57385;41.832;23.494;2022-12-07T06:50:28;90896.34;;;5.26;78.03
70046;BME280;57385;41.832;23.494;2022-12-07T06:51:49;90896.75;;;5.37;77.75
70046;BME280;57385;41.832;23.494;2022-12-07T06:53:10;90891.06;;;5.28;78.12
70046;BME280;57385;41.832;23.494;2022-12-07T06:54:32;90894.41;;;5.35;77.86
70046;BME280;57385;41.832;23.494;2022-12-07T06:55:53;90893.78;;;5.46;77.50
70046;BME280;57385;41.832;23.494;2022-12-07T06:57:14;90890.47;;;5.52;77.21
70046;BME280;57385;41.832;23.494;2022-12-07T06:58:36;90896.53;;;5.58;77.04
70046;BME280;57385;41.832;23.494;2022-12-07T06:59:57;90902.00;;;5.61;77.02
70046;BME280;57385;41.832;23.494;2022-12-07T07:01:19;90900.84;;;5.71;76.94
70046;BME280;57385;41.832;23.494;2022-12-07T07:02:40;90898.88;;;5.79;76.57
70046;BME280;57385;41.832;23.494;2022-12-07T07:04:02;90898.88;;;5.79;76.53
70046;BME280;57385;41.832;23.494;2022-12-07T07:05:23;90901.84;;;5.76;76.92
70046;BME280;57385;41.832;23.494;2022-12-07T07:06:45;90906.50;;;5.73;76.98
70046;BME280;57385;41.832;23.494;2022-12-07T07:08:07;90903.97;;;5.73;76.78
70046;BME280;57385;41.832;23.494;2022-12-07T07:09:44;90900.06;;;5.63;76.58
70046;BME280;57385;41.832;23.494;2022-12-07T07:11:06;90904.38;;;5.56;76.81
70046;BME280;57385;41.832;23.494;2022-12-07T07:12:28;90901.63;;;5.58;76.74
70046;BME280;57385;41.832;23.494;2022-12-07T07:13:49;90901.84;;;5.63;76.66
70046;BME280;57385;41.832;23.494;2022-12-07T07:15:10;90903.97;;;5.66;76.85
70046;BME280;57385;41.832;23.494;2022-12-07T07:16:32;90899.47;;;5.61;76.66
70046;BME280;57385;41.832;23.494;2022-12-07T07:17:53;90895.00;;;5.90;76.11
70046;BME280;57385;41.832;23.494;2022-12-07T07:19:14;90895.47;;;6.38;74.78
70046;BME280;57385;41.832;23.494;2022-12-07T07:20:36;90903.06;;;6.51;74.04
70046;BME280;57385;41.832;23.494;2022-12-07T07:21:57;90892.75;;;7.16;72.15
70046;BME280;57385;41.832;23.494;2022-12-07T07:23:19;90898.34;;;7.31;71.17
70046;BME280;57385;41.832;23.494;2022-12-07T07:24:41;90894.03;;;7.32;71.73
70046;BME280;57385;41.832;23.494;2022-12-07T07:26:02;90893.75;;;7.40;71.78
70046;BME280;57385;41.832;23.494;2022-12-07T07:27:23;90894.56;;;7.40;71.21
70046;BME280;57385;41.832;23.494;2022-12-07T07:28:44;90893.69;;;7.22;71.47
70046;BME280;57385;41.832;23.494;2022-12-07T07:30:06;90894.47;;;7.22;71.99
70046;BME280;57385;41.832;23.494;2022-12-07T07:31:27;90888.97;;;7.25;71.68
70046;BME280;57385;41.832;23.494;2022-12-07T07:32:48;90896.09;;;7.17;71.32
70046;BME280;57385;41.832;23.494;2022-12-07T07:34:10;90899.22;;;7.19;71.99
70046;BME280;57385;41.832;23.494;2022-12-07T07:35:33;90900.06;;;7.06;71.65
70046;BME280;57385;41.832;23.494;2022-12-07T07:36:54;90900.44;;;7.09;72.17
70046;BME280;57385;41.832;23.494;2022-12-07T07:38:15;90904.88;;;6.89;72.09
70046;BME280;57385;41.832;23.494;2022-12-07T07:39:37;90899.47;;;6.66;72.87
70046;BME280;57385;41.832;23.494;2022-12-07T07:40:58;90904.84;;;6.44;73.78
70046;BME280;57385;41.832;23.494;2022-12-07T07:42:19;90906.22;;;6.47;73.41
70046;BME280;57385;41.832;23.494;2022-12-07T07:43:40;90905.47;;;6.27;73.66
70046;BME280;57385;41.832;23.494;2022-12-07T07:45:01;90910.41;;;6.15;74.66
70046;BME280;57385;41.832;23.494;2022-12-07T07:46:23;90915.09;;;6.24;74.72
70046;BME280;57385;41.832;23.494;2022-12-07T07:47:44;90916.84;;;6.24;74.20
70046;BME280;57385;41.832;23.494;2022-12-07T07:49:05;90913.34;;;6.18;75.09
70046;BME280;57385;41.832;23.494;2022-12-07T07:50:26;90914.13;;;6.19;74.99
70046;BME280;57385;41.832;23.494;2022-12-07T07:51:47;90911.00;;;6.10;75.59
70046;BME280;57385;41.832;23.494;2022-12-07T07:53:09;90921.38;;;6.02;76.41
70046;BME280;57385;41.832;23.494;2022-12-07T07:54:30;90919.63;;;5.96;76.08